Time;durP1;ratioP1;P1;durP2;ratioP2;P2;SDS_P1;SDS_P2;PMS_P1;PMS_P2;Temp;Humidity;BMP_temperature;BMP_pressure;BME280_temperature;BME280_humidity;BME280_pressure;Samples;Min_cycle;Max_cycle;Signal;HPM_P1;HPM_P2
2022/05/06 00:01:49;;;;;;;9.97;7.73;;;16.20;99.90;;;;;;5060605;28;21060;-79
2022/05/06 00:04:17;;;;;;;13.47;9.03;;;16.30;99.90;;;;;;5062412;28;20970;-80
2022/05/06 00:06:47;;;;;;;13.17;9.40;;;16.30;99.90;;;;;;5060160;28;20450;-78
2022/05/06 00:09:15;;;;;;;15.37;9.57;;;16.30;99.90;;;;;;5057252;28;20520;-80
2022/05/06 00:11:43;;;;;;;13.10;9.37;;;16.40;99.90;;;;;;5060894;28;20967;-80
2022/05/06 00:14:11;;;;;;;13.00;7.80;;;16.40;99.90;;;;;;5055780;28;20451;-79
2022/05/06 00:16:40;;;;;;;12.57;9.13;;;16.40;99.90;;;;;;5057901;28;20476;-80
2022/05/06 00:19:08;;;;;;;13.10;9.23;;;16.40;99.90;;;;;;5060454;28;20447;-79
2022/05/06 00:21:36;;;;;;;12.73;8.47;;;16.70;99.90;;;;;;5058485;28;20529;-81
2022/05/06 00:24:07;;;;;;;12.77;8.30;;;16.40;99.90;;;;;;5060666;28;21236;-78
2022/05/06 00:26:35;;;;;;;13.37;9.07;;;16.40;99.90;;;;;;5056933;28;20457;-80
2022/05/06 00:29:03;;;;;;;15.50;9.23;;;16.30;99.90;;;;;;5063612;28;20460;-81
2022/05/06 00:31:31;;;;;;;13.57;9.07;;;16.30;99.90;;;;;;5058694;28;20487;-80
2022/05/06 00:33:59;;;;;;;9.57;7.53;;;16.30;99.90;;;;;;5058533;28;20564;-81
2022/05/06 00:36:27;;;;;;;11.73;9.27;;;16.20;99.90;;;;;;5065176;28;21136;-79
2022/05/06 00:38:56;;;;;;;11.83;8.70;;;16.20;99.90;;;;;;5063085;28;20446;-79
2022/05/06 00:41:31;;;;;;;14.13;8.90;;;16.20;99.90;;;;;;5065020;28;20453;-80
2022/05/06 00:43:59;;;;;;;11.40;8.00;;;16.20;99.90;;;;;;5059220;28;20454;-79
2022/05/06 00:46:28;;;;;;;11.43;8.27;;;16.20;99.90;;;;;;5059419;28;20975;-80
2022/05/06 00:48:56;;;;;;;11.40;8.53;;;16.20;99.90;;;;;;5062367;28;20459;-80
2022/05/06 00:51:25;;;;;;;9.47;7.00;;;16.20;99.90;;;;;;5062518;28;20531;-81
2022/05/06 00:53:56;;;;;;;12.23;8.93;;;16.20;99.90;;;;;;5050231;28;20532;-80
2022/05/06 00:56:25;;;;;;;13.50;8.00;;;16.20;99.90;;;;;;5053415;28;20456;-80
2022/05/06 00:58:54;;;;;;;11.23;8.17;;;16.10;99.90;;;;;;5060127;28;20493;-81
2022/05/06 01:01:22;;;;;;;11.70;7.70;;;16.10;99.90;;;;;;5054627;28;20451;-80
2022/05/06 01:03:50;;;;;;;13.73;8.30;;;16.10;99.90;;;;;;5060399;28;20983;-81
2022/05/06 01:06:19;;;;;;;10.17;7.90;;;16.10;99.90;;;;;;5060385;28;20488;-81
2022/05/06 01:08:47;;;;;;;15.10;8.37;;;16.20;99.90;;;;;;5057556;28;20444;-81
2022/05/06 01:11:15;;;;;;;11.70;7.17;;;16.20;99.90;;;;;;5065891;28;20876;-81
2022/05/06 01:13:47;;;;;;;9.13;7.47;;;16.10;99.90;;;;;;5063642;28;20470;-81
2022/05/06 01:16:15;;;;;;;12.60;7.27;;;16.20;99.90;;;;;;5054591;28;20467;-80
2022/05/06 01:18:43;;;;;;;11.00;8.03;;;16.20;99.90;;;;;;5056691;28;21049;-81
2022/05/06 01:21:18;;;;;;;9.07;7.73;;;16.20;99.90;;;;;;5063006;28;20515;-81
2022/05/06 01:23:48;;;;;;;11.30;8.00;;;16.20;99.90;;;;;;5062204;28;20456;-80
2022/05/06 01:26:16;;;;;;;13.80;8.10;;;16.20;99.90;;;;;;5060827;28;21081;-79
2022/05/06 01:28:46;;;;;;;12.37;7.33;;;16.20;99.90;;;;;;5057905;28;20994;-83
2022/05/06 01:31:23;;;;;;;15.87;8.97;;;16.20;99.90;;;;;;5060274;28;20465;-81
2022/05/06 01:33:55;;;;;;;8.47;6.90;;;16.10;99.90;;;;;;5061025;28;20481;-80
2022/05/06 01:36:25;;;;;;;10.93;6.70;;;16.10;99.90;;;;;;5056781;28;20480;-80
2022/05/06 01:38:59;;;;;;;9.13;7.50;;;16.10;99.90;;;;;;5058369;28;20439;-81
2022/05/06 01:41:28;;;;;;;13.13;8.53;;;16.10;99.90;;;;;;5058916;28;20457;-81
2022/05/06 01:44:01;;;;;;;10.70;7.40;;;16.10;99.90;;;;;;5051043;28;20447;-79
2022/05/06 01:46:30;;;;;;;9.30;7.00;;;16.10;99.90;;;;;;5058241;28;21017;-80
2022/05/06 01:48:59;;;;;;;10.20;7.20;;;16.10;99.90;;;;;;5058863;28;20458;-80
2022/05/06 01:51:28;;;;;;;7.57;6.47;;;16.10;99.90;;;;;;5060115;28;20457;-81
2022/05/06 01:53:58;;;;;;;11.03;7.33;;;16.10;99.90;;;;;;5055231;28;21194;-80
2022/05/06 01:56:26;;;;;;;11.90;7.40;;;16.10;99.90;;;;;;5055638;28;20469;-80
2022/05/06 01:58:54;;;;;;;10.37;8.20;;;16.10;99.90;;;;;;5059072;28;20545;-80
2022/05/06 02:01:23;;;;;;;10.60;7.63;;;16.10;99.90;;;;;;5057639;28;20515;-80
2022/05/06 02:06:37;;;;;;;11.10;7.17;;;16.10;99.90;;;;;;5057785;28;20447;-80
2022/05/06 02:09:07;;;;;;;11.20;7.77;;;16.10;99.90;;;;;;5061814;28;21074;-80
2022/05/06 02:11:35;;;;;;;13.27;7.83;;;16.10;99.90;;;;;;5063664;28;21233;-81
2022/05/06 02:14:04;;;;;;;12.50;7.63;;;16.20;99.90;;;;;;5063246;28;20485;-80
2022/05/06 02:16:32;;;;;;;9.60;7.70;;;16.20;99.90;;;;;;5060172;28;20536;-80
2022/05/06 02:19:01;;;;;;;12.70;6.60;;;16.10;99.90;;;;;;5060939;28;20913;-80
2022/05/06 02:21:29;;;;;;;10.27;7.40;;;16.10;99.90;;;;;;5064314;28;20477;-80
2022/05/06 02:23:57;;;;;;;8.50;6.50;;;16.20;99.90;;;;;;5061181;28;20438;-80
2022/05/06 02:26:27;;;;;;;10.30;8.10;;;16.20;99.90;;;;;;5060897;28;20463;-80
2022/05/06 02:28:55;;;;;;;15.47;8.80;;;16.20;99.90;;;;;;5063892;28;20462;-82
2022/05/06 02:34:15;;;;;;;10.70;7.50;;;16.20;99.90;;;;;;5063619;28;20481;-80
2022/05/06 02:36:43;;;;;;;10.37;6.50;;;16.20;99.90;;;;;;5065757;28;20520;-82
2022/05/06 02:39:12;;;;;;;10.40;7.73;;;16.10;99.90;;;;;;5065636;28;20472;-81
2022/05/06 02:41:41;;;;;;;8.97;7.13;;;16.10;99.90;;;;;;5061991;28;20490;-81
2022/05/06 02:44:09;;;;;;;8.73;7.40;;;16.10;99.90;;;;;;5061684;28;20486;-80
2022/05/06 02:46:37;;;;;;;14.20;8.17;;;16.00;99.90;;;;;;5061481;28;20962;-80
2022/05/06 02:49:06;;;;;;;16.87;8.03;;;16.00;99.90;;;;;;5063207;28;21049;-82
2022/05/06 02:51:34;;;;;;;14.20;11.20;;;16.10;99.90;;;;;;5064120;28;21818;-81
2022/05/06 02:54:02;;;;;;;12.33;7.93;;;16.10;99.90;;;;;;5066488;28;20510;-81
2022/05/06 02:56:30;;;;;;;13.13;9.70;;;16.10;99.90;;;;;;5065324;28;20443;-82
2022/05/06 02:59:00;;;;;;;10.27;7.10;;;16.00;99.90;;;;;;5065318;28;20584;-81
2022/05/06 03:01:29;;;;;;;12.10;7.90;;;16.00;99.90;;;;;;5065998;28;21250;-81
2022/05/06 03:03:58;;;;;;;9.47;6.73;;;16.00;99.90;;;;;;5061835;28;20466;-81
2022/05/06 03:06:26;;;;;;;9.70;6.70;;;16.10;99.90;;;;;;5063571;28;20446;-81
2022/05/06 03:08:54;;;;;;;12.03;9.00;;;16.10;99.90;;;;;;5062732;28;21047;-80
2022/05/06 03:11:22;;;;;;;11.17;7.97;;;16.10;99.90;;;;;;5053946;28;20443;-81
2022/05/06 03:13:50;;;;;;;8.90;6.40;;;16.10;99.90;;;;;;5060983;28;20474;-81
2022/05/06 03:16:20;;;;;;;10.20;7.70;;;16.00;99.90;;;;;;5063507;28;20460;-80
2022/05/06 03:18:48;;;;;;;9.57;6.63;;;16.10;99.90;;;;;;5062457;28;20451;-80
2022/05/06 03:21:17;;;;;;;11.07;8.13;;;16.00;99.90;;;;;;5066997;28;20462;-81
2022/05/06 03:23:48;;;;;;;10.57;6.77;;;16.10;99.90;;;;;;5059998;28;20458;-82
2022/05/06 03:26:17;;;;;;;12.17;7.50;;;16.00;99.90;;;;;;5057751;28;20459;-81
2022/05/06 03:28:46;;;;;;;8.97;6.40;;;16.10;99.90;;;;;;5059577;28;20465;-80
2022/05/06 03:31:14;;;;;;;10.70;7.63;;;16.00;99.90;;;;;;5065467;28;20447;-80
2022/05/06 03:33:44;;;;;;;7.77;6.47;;;16.00;99.90;;;;;;5059856;28;20479;-81
2022/05/06 03:36:13;;;;;;;9.10;6.83;;;15.90;99.90;;;;;;5056865;28;20468;-81
2022/05/06 03:38:41;;;;;;;8.90;7.33;;;15.90;99.90;;;;;;5054203;28;20450;-81
2022/05/06 03:41:09;;;;;;;13.23;6.90;;;15.90;99.90;;;;;;5058746;28;20473;-80
2022/05/06 03:43:37;;;;;;;11.93;7.30;;;15.90;99.90;;;;;;5059117;28;20464;-80
2022/05/06 03:46:05;;;;;;;8.70;7.03;;;16.00;99.90;;;;;;5062941;28;20457;-80
2022/05/06 03:48:35;;;;;;;9.30;7.03;;;16.00;99.90;;;;;;5063582;28;20450;-79
2022/05/06 03:51:23;;;;;;;12.83;7.23;;;15.90;99.90;;;;;;5054095;28;20982;-79
2022/05/06 03:53:52;;;;;;;10.17;7.27;;;15.90;99.90;;;;;;5052187;28;21009;-79
2022/05/06 03:56:22;;;;;;;11.40;7.20;;;15.90;99.90;;;;;;5060361;28;21123;-80
2022/05/06 03:58:51;;;;;;;10.43;7.67;;;15.90;99.90;;;;;;5054065;28;20463;-80
2022/05/06 04:01:20;;;;;;;8.53;6.57;;;15.90;99.90;;;;;;5053920;28;20448;-80
2022/05/06 04:03:48;;;;;;;10.90;6.47;;;15.80;99.90;;;;;;5055577;28;20509;-80
2022/05/06 04:06:18;;;;;;;14.20;7.17;;;15.90;99.90;;;;;;5057370;28;20874;-79
2022/05/06 04:08:46;;;;;;;9.03;6.10;;;15.90;99.90;;;;;;5058379;28;20466;-80
2022/05/06 04:11:14;;;;;;;6.83;6.00;;;15.90;99.90;;;;;;5054976;28;20464;-80
2022/05/06 04:13:43;;;;;;;9.70;6.90;;;15.90;99.90;;;;;;5056371;28;20924;-83
2022/05/06 04:16:11;;;;;;;7.73;6.73;;;15.90;99.90;;;;;;5058511;28;20543;-78
2022/05/06 04:18:40;;;;;;;7.63;6.20;;;15.90;99.90;;;;;;5062302;28;20509;-78
2022/05/06 04:23:55;;;;;;;11.13;6.63;;;16.00;99.90;;;;;;5048655;28;20446;-79
2022/05/06 04:26:23;;;;;;;10.03;6.90;;;16.00;99.90;;;;;;5055236;28;21052;-78
2022/05/06 04:28:51;;;;;;;7.40;6.10;;;16.00;99.90;;;;;;5055465;28;20450;-79
2022/05/06 04:31:19;;;;;;;10.47;6.87;;;16.00;99.90;;;;;;5060017;28;20462;-81
2022/05/06 04:33:48;;;;;;;7.40;6.20;;;16.00;99.90;;;;;;5055932;28;21259;-79
2022/05/06 04:36:16;;;;;;;12.70;8.53;;;15.90;99.90;;;;;;5057969;28;20451;-79
2022/05/06 04:38:44;;;;;;;10.47;7.37;;;15.90;99.90;;;;;;5055624;28;20453;-78
2022/05/06 04:41:14;;;;;;;7.37;6.30;;;15.90;99.90;;;;;;5057462;28;20817;-78
2022/05/06 04:43:42;;;;;;;7.87;6.17;;;15.90;99.90;;;;;;5053572;28;21950;-78
2022/05/06 04:46:10;;;;;;;8.73;6.33;;;15.90;99.90;;;;;;5052563;28;20463;-79
2022/05/06 04:48:38;;;;;;;10.63;7.60;;;15.90;99.90;;;;;;5052675;28;20463;-78
2022/05/06 04:51:06;;;;;;;7.10;5.10;;;15.90;99.90;;;;;;5057670;28;20473;-79
2022/05/06 04:53:34;;;;;;;10.20;6.77;;;15.80;99.90;;;;;;5054170;28;20479;-79
2022/05/06 04:56:03;;;;;;;10.57;7.73;;;15.90;99.90;;;;;;5057013;28;20450;-79
2022/05/06 04:58:32;;;;;;;6.70;5.90;;;15.90;99.90;;;;;;5054982;28;20442;-78
2022/05/06 05:01:01;;;;;;;9.77;6.20;;;15.90;99.90;;;;;;5053508;28;20469;-78
2022/05/06 05:03:29;;;;;;;10.10;5.73;;;15.90;99.90;;;;;;5051696;28;20558;-79
2022/05/06 05:05:57;;;;;;;7.77;6.20;;;15.90;99.90;;;;;;5086421;28;20450;-78
2022/05/06 05:08:26;;;;;;;8.27;6.17;;;15.90;99.90;;;;;;5090758;28;20470;-78
2022/05/06 05:11:02;;;;;;;6.53;5.83;;;15.90;99.90;;;;;;5053393;28;20459;-78
2022/05/06 05:13:38;;;;;;;10.90;6.80;;;15.90;99.90;;;;;;5053704;28;20572;-80
2022/05/06 05:16:06;;;;;;;7.23;6.40;;;15.90;99.90;;;;;;5052710;28;20454;-79
2022/05/06 05:18:35;;;;;;;8.17;6.37;;;15.90;99.90;;;;;;5058055;28;20455;-79
2022/05/06 05:21:03;;;;;;;6.50;5.40;;;15.90;99.90;;;;;;5046693;28;21363;-78
2022/05/06 05:23:32;;;;;;;10.43;6.20;;;15.90;99.90;;;;;;5052303;28;21092;-79
2022/05/06 05:26:00;;;;;;;7.90;6.00;;;15.90;99.90;;;;;;5050844;28;20465;-78
2022/05/06 05:28:28;;;;;;;6.70;5.67;;;15.90;99.90;;;;;;5051512;28;20518;-78
2022/05/06 05:30:57;;;;;;;7.40;6.60;;;15.90;99.90;;;;;;5055447;28;20466;-78
2022/05/06 05:33:25;;;;;;;9.17;6.63;;;15.90;99.90;;;;;;5059438;28;20486;-79
2022/05/06 05:35:54;;;;;;;6.70;6.00;;;15.90;99.90;;;;;;5053238;28;21171;-79
2022/05/06 05:38:22;;;;;;;8.27;5.60;;;15.80;99.90;;;;;;5050208;28;20518;-78
2022/05/06 05:40:50;;;;;;;5.73;4.73;;;15.90;99.90;;;;;;5056653;28;20988;-78
2022/05/06 05:48:47;;;;;;;11.83;6.57;;;15.80;99.90;;;;;;5052198;28;20549;-78
2022/05/06 05:51:15;;;;;;;9.57;6.30;;;15.80;99.90;;;;;;5055868;28;20496;-79
2022/05/06 05:53:43;;;;;;;10.73;7.00;;;15.90;99.90;;;;;;5052370;28;20465;-77
2022/05/06 05:56:11;;;;;;;8.43;6.03;;;15.80;99.90;;;;;;5054216;28;22507;-78
2022/05/06 05:58:40;;;;;;;7.57;6.07;;;15.80;99.90;;;;;;5053899;28;20470;-78
2022/05/06 06:01:09;;;;;;;9.30;7.40;;;15.80;99.90;;;;;;5054062;28;20458;-79
2022/05/06 06:03:37;;;;;;;6.90;5.63;;;15.80;99.90;;;;;;5052523;28;20465;-78
2022/05/06 06:06:06;;;;;;;8.53;6.07;;;15.80;99.90;;;;;;5053786;28;21822;-78
2022/05/06 06:08:35;;;;;;;9.37;7.23;;;15.80;99.90;;;;;;5084810;28;20458;-78
2022/05/06 06:11:03;;;;;;;7.07;6.37;;;15.90;99.90;;;;;;5055413;28;20467;-78
2022/05/06 06:13:32;;;;;;;10.37;7.10;;;15.80;1.00;;;;;;5054604;28;20833;-78
2022/05/06 06:16:00;;;;;;;7.80;6.57;;;15.80;1.00;;;;;;5054915;28;20503;-78
2022/05/06 06:18:29;;;;;;;6.10;5.50;;;15.80;1.00;;;;;;5053829;28;20815;-79
2022/05/06 06:20:58;;;;;;;8.80;6.70;;;15.80;1.00;;;;;;5074139;28;20492;-79
2022/05/06 06:23:26;;;;;;;10.23;6.80;;;15.70;1.00;;;;;;5050367;28;20555;-78
2022/05/06 06:25:58;;;;;;;6.63;5.60;;;15.70;1.00;;;;;;5061673;28;20451;-79
2022/05/06 06:28:26;;;;;;;9.37;7.13;;;15.70;1.00;;;;;;5057313;28;20462;-78
2022/05/06 06:30:54;;;;;;;12.20;7.53;;;15.70;1.00;;;;;;5055755;28;20485;-79
2022/05/06 06:33:22;;;;;;;12.07;8.20;;;15.70;1.00;;;;;;5054761;28;20838;-78
2022/05/06 06:35:52;;;;;;;9.73;8.00;;;15.70;1.00;;;;;;5052956;28;20540;-79
2022/05/06 06:38:20;;;;;;;9.00;7.10;;;15.70;1.00;;;;;;5054992;28;20476;-79
2022/05/06 06:40:49;;;;;;;10.23;8.07;;;15.70;1.00;;;;;;5066803;28;20502;-78
2022/05/06 06:43:18;;;;;;;8.13;6.03;;;15.60;1.00;;;;;;5050943;28;20467;-77
2022/05/06 06:45:46;;;;;;;8.97;6.20;;;15.70;1.00;;;;;;5052922;28;20455;-79
2022/05/06 06:48:14;;;;;;;8.93;6.00;;;15.70;1.00;;;;;;5049832;28;20456;-78
2022/05/06 06:50:43;;;;;;;6.83;6.13;;;15.70;1.00;;;;;;5056972;28;20970;-79
2022/05/06 06:53:12;;;;;;;8.73;6.60;;;15.70;1.00;;;;;;5051825;28;20484;-79
2022/05/06 06:55:40;;;;;;;12.90;6.90;;;15.70;1.00;;;;;;5062931;28;21209;-78
2022/05/06 06:58:09;;;;;;;8.80;6.83;;;15.70;1.00;;;;;;5053962;28;20451;-78
2022/05/06 07:00:37;;;;;;;9.63;6.83;;;15.60;1.00;;;;;;5060712;28;20809;-78
2022/05/06 07:03:06;;;;;;;9.40;6.70;;;15.70;1.00;;;;;;5056070;28;20478;-80
2022/05/06 07:05:34;;;;;;;8.73;6.60;;;15.60;1.00;;;;;;5055766;28;21040;-79
2022/05/06 07:13:48;;;;;;;8.77;7.00;;;15.60;1.00;;;;;;5056607;28;20449;-78
2022/05/06 07:16:16;;;;;;;8.80;6.63;;;15.60;1.00;;;;;;5056688;28;20470;-79
2022/05/06 07:18:44;;;;;;;8.60;5.73;;;15.70;1.00;;;;;;5058411;28;20458;-78
2022/05/06 07:21:12;;;;;;;9.83;5.77;;;15.70;1.00;;;;;;5053426;28;20443;-78
2022/05/06 07:23:40;;;;;;;9.00;7.30;;;15.70;1.00;;;;;;5056376;28;20467;-78
2022/05/06 07:26:11;;;;;;;10.53;6.07;;;15.70;1.00;;;;;;5061439;28;20462;-76
2022/05/06 07:28:39;;;;;;;7.77;6.37;;;15.70;99.90;;;;;;5058882;28;20471;-78
2022/05/06 07:31:08;;;;;;;7.50;6.80;;;15.70;99.90;;;;;;5062768;28;20456;-78
2022/05/06 07:33:36;;;;;;;8.90;5.30;;;15.70;99.90;;;;;;5060824;28;20509;-77
2022/05/06 07:36:05;;;;;;;7.23;5.77;;;15.70;99.90;;;;;;5065426;28;20471;-79
2022/05/06 07:38:33;;;;;;;5.60;4.57;;;15.60;99.90;;;;;;5059273;28;20542;-78
2022/05/06 07:41:03;;;;;;;6.10;5.10;;;15.70;99.90;;;;;;5064653;28;20974;-78
2022/05/06 07:43:32;;;;;;;8.83;5.10;;;15.70;99.90;;;;;;5057699;28;20534;-80
2022/05/06 07:46:01;;;;;;;6.47;5.87;;;15.80;99.90;;;;;;5054752;28;20459;-79
2022/05/06 07:48:29;;;;;;;7.90;6.00;;;15.80;99.90;;;;;;5054953;28;20869;-79
2022/05/06 07:51:05;;;;;;;8.40;6.30;;;15.90;99.90;;;;;;5055494;28;22929;-81
2022/05/06 07:53:33;;;;;;;7.27;5.97;;;15.90;99.90;;;;;;5050051;28;20479;-78
2022/05/06 07:56:02;;;;;;;9.20;6.03;;;15.90;99.90;;;;;;5055450;28;20484;-79
2022/05/06 07:58:30;;;;;;;6.87;5.70;;;15.90;99.90;;;;;;5055322;28;20487;-79
2022/05/06 08:01:00;;;;;;;7.60;5.50;;;15.90;99.90;;;;;;5054509;28;20827;-77
2022/05/06 08:06:14;;;;;;;8.17;5.70;;;15.90;99.90;;;;;;5060700;28;20456;-78
2022/05/06 08:08:42;;;;;;;5.63;5.13;;;16.00;99.90;;;;;;5065288;28;20457;-78
2022/05/06 08:11:11;;;;;;;8.00;5.43;;;16.00;99.90;;;;;;5065030;28;20456;-78
2022/05/06 08:13:39;;;;;;;6.73;4.63;;;16.00;99.90;;;;;;5056687;28;20550;-80
2022/05/06 08:16:09;;;;;;;7.03;4.67;;;16.00;99.90;;;;;;5052802;28;20532;-79
2022/05/06 08:18:38;;;;;;;5.37;4.10;;;16.00;99.90;;;;;;5055672;28;20585;-78
2022/05/06 08:21:06;;;;;;;5.30;4.80;;;16.00;99.90;;;;;;5056117;28;20489;-79
2022/05/06 08:23:34;;;;;;;4.73;4.20;;;16.00;99.90;;;;;;5052864;28;20541;-78
2022/05/06 08:26:02;;;;;;;7.20;5.17;;;16.00;99.90;;;;;;5055539;28;20461;-79
2022/05/06 08:28:31;;;;;;;6.90;5.40;;;16.00;99.90;;;;;;5060190;28;20556;-79
2022/05/06 08:30:59;;;;;;;6.50;5.33;;;16.10;99.90;;;;;;5059249;28;20911;-78
2022/05/06 08:33:29;;;;;;;7.70;5.00;;;16.00;99.90;;;;;;5057213;28;21089;-78
2022/05/06 08:35:57;;;;;;;7.03;5.07;;;16.00;99.90;;;;;;5054427;28;20476;-78
2022/05/06 08:38:25;;;;;;;5.77;4.20;;;16.00;99.90;;;;;;5048200;28;21381;-78
2022/05/06 08:40:55;;;;;;;8.70;4.80;;;16.10;99.90;;;;;;5054683;28;20708;-79
2022/05/06 08:43:24;;;;;;;8.13;4.43;;;16.10;99.90;;;;;;5057987;28;20483;-79
2022/05/06 08:51:45;;;;;;;5.07;4.20;;;16.20;99.90;;;;;;5058826;28;21076;-79
2022/05/06 08:54:14;;;;;;;4.40;4.00;;;16.20;99.90;;;;;;5056977;28;20968;-79
2022/05/06 08:56:43;;;;;;;6.10;4.80;;;16.10;99.90;;;;;;5051855;28;20475;-79
2022/05/06 08:59:11;;;;;;;4.20;3.67;;;16.20;99.90;;;;;;5055788;28;20458;-80
2022/05/06 09:01:39;;;;;;;4.00;3.60;;;16.20;99.90;;;;;;5060785;28;20592;-79
2022/05/06 09:04:09;;;;;;;6.07;3.50;;;16.20;99.90;;;;;;5060677;28;20875;-78
2022/05/06 09:06:37;;;;;;;5.13;3.83;;;16.20;99.90;;;;;;5050420;28;20447;-80
2022/05/06 09:09:05;;;;;;;4.10;3.20;;;16.20;99.90;;;;;;5061828;28;20512;-80
2022/05/06 09:16:39;;;;;;;4.27;3.80;;;16.30;99.90;;;;;;5057531;28;20465;-80
2022/05/06 09:17:18;;;;;;;3.67;3.27;;;16.30;99.90;;;;;;5056099;28;20497;-79
2022/05/06 09:19:48;;;;;;;5.37;4.93;;;16.30;99.90;;;;;;5058365;28;20512;-79
2022/05/06 09:22:19;;;;;;;4.20;3.80;;;16.30;99.90;;;;;;5065212;28;20462;-79
2022/05/06 09:24:50;;;;;;;3.80;3.50;;;16.30;99.90;;;;;;5054108;28;20451;-79
2022/05/06 09:27:19;;;;;;;4.57;3.90;;;16.40;99.90;;;;;;5051034;28;20548;-79
2022/05/06 09:29:48;;;;;;;4.40;3.03;;;16.40;99.90;;;;;;5051404;28;20467;-80
2022/05/06 09:32:22;;;;;;;4.13;3.70;;;16.50;99.90;;;;;;5053395;28;20485;-79
2022/05/06 09:34:53;;;;;;;5.50;3.30;;;16.50;99.90;;;;;;5051250;28;20501;-80
2022/05/06 09:37:38;;;;;;;5.63;3.70;;;16.50;99.90;;;;;;5054014;28;21007;-80
2022/05/06 09:40:12;;;;;;;8.73;3.70;;;16.60;99.90;;;;;;5053430;28;20505;-81
2022/05/06 09:42:41;;;;;;;3.87;3.47;;;16.70;99.90;;;;;;5053644;28;20468;-80
2022/05/06 09:45:11;;;;;;;4.73;3.40;;;16.70;99.90;;;;;;5048760;28;20474;-81
2022/05/06 09:47:42;;;;;;;6.63;3.50;;;16.70;99.90;;;;;;5053624;28;20460;-79
2022/05/06 09:50:12;;;;;;;2.83;2.63;;;16.80;99.90;;;;;;5053883;28;20461;-80
2022/05/06 09:52:40;;;;;;;5.30;3.37;;;16.80;99.90;;;;;;5054203;28;20480;-80
2022/05/06 09:55:09;;;;;;;4.77;3.53;;;16.80;99.90;;;;;;5055936;28;20457;-79
2022/05/06 09:57:38;;;;;;;6.93;4.40;;;16.80;99.90;;;;;;5060167;28;21286;-78
2022/05/06 10:00:08;;;;;;;4.00;3.10;;;16.80;99.90;;;;;;5054476;28;20457;-79
2022/05/06 10:02:38;;;;;;;3.40;3.10;;;16.90;99.90;;;;;;5051439;28;20479;-79
2022/05/06 10:05:08;;;;;;;4.03;3.03;;;16.90;99.90;;;;;;5057272;28;20811;-78
2022/05/06 10:07:42;;;;;;;4.57;3.10;;;16.90;99.90;;;;;;5059876;28;20818;-79
2022/05/06 10:10:16;;;;;;;3.40;3.10;;;17.00;99.90;;;;;;5049059;28;20468;-79
2022/05/06 10:12:53;;;;;;;3.70;3.30;;;17.00;99.90;;;;;;5054035;28;20487;-79
2022/05/06 10:15:23;;;;;;;4.03;3.13;;;17.00;99.90;;;;;;5049982;28;21447;-80
2022/05/06 10:17:54;;;;;;;3.65;3.30;;;17.00;99.90;;;;;;5047488;28;20442;-80
2022/05/06 10:21:00;;;;;;;3.30;3.00;;;17.00;99.90;;;;;;5050897;28;20199;-79
2022/05/06 10:23:47;;;;;;;4.30;3.83;;;17.10;99.90;;;;;;5055349;28;20814;-80
2022/05/06 10:26:45;;;;;;;3.70;3.33;;;17.10;99.90;;;;;;5047157;28;20455;-79
2022/05/06 10:32:58;;;;;;;3.30;3.00;;;17.20;99.90;;;;;;5062398;28;20480;-81
2022/05/06 10:35:40;;;;;;;4.20;3.23;;;17.20;99.90;;;;;;5057807;28;20456;-79
2022/05/06 10:38:32;;;;;;;3.83;2.83;;;17.20;99.90;;;;;;5060062;28;20473;-79
2022/05/06 10:41:02;;;;;;;4.40;4.00;;;17.30;99.90;;;;;;5056479;28;20897;-78
2022/05/06 10:43:52;;;;;;;2.80;2.60;;;17.30;99.90;;;;;;5059245;28;20481;-79
2022/05/06 10:46:40;;;;;;;3.47;3.17;;;17.40;99.90;;;;;;5057973;28;20464;-80
2022/05/06 10:49:48;;;;;;;3.07;2.87;;;17.40;99.90;;;;;;5052750;28;21000;-79
2022/05/06 10:52:54;;;;;;;4.30;3.13;;;17.40;99.90;;;;;;5061125;28;20486;-79
2022/05/06 10:55:24;;;;;;;4.20;3.50;;;17.40;99.90;;;;;;5054385;28;20965;-80
2022/05/06 10:58:03;;;;;;;3.40;3.00;;;17.40;99.90;;;;;;5059530;28;20483;-79
2022/05/06 11:00:37;;;;;;;3.90;3.50;;;17.50;99.90;;;;;;5061246;28;20554;-80
2022/05/06 11:03:06;;;;;;;4.23;2.90;;;17.60;99.90;;;;;;5054777;28;20520;-79
2022/05/06 11:05:35;;;;;;;4.03;3.63;;;17.70;99.90;;;;;;5088953;28;20454;-80
2022/05/06 11:08:07;;;;;;;4.20;3.27;;;17.80;99.90;;;;;;5054999;28;20469;-79
2022/05/06 11:10:36;;;;;;;4.07;3.20;;;17.80;99.90;;;;;;5058876;28;20454;-80
2022/05/06 11:13:25;;;;;;;4.60;3.67;;;17.90;99.90;;;;;;5055328;28;20595;-79
2022/05/06 11:15:55;;;;;;;3.60;3.30;;;18.00;99.90;;;;;;5054263;28;20455;-80
2022/05/06 11:18:26;;;;;;;4.13;3.10;;;17.90;99.90;;;;;;5053031;28;20473;-80
2022/05/06 11:20:54;;;;;;;3.33;3.03;;;18.00;99.90;;;;;;5054506;28;20456;-79
2022/05/06 11:23:30;;;;;;;4.30;3.90;;;18.10;99.90;;;;;;5049689;28;20536;-80
2022/05/06 11:25:59;;;;;;;4.93;3.50;;;18.20;99.90;;;;;;5055915;28;20477;-77
2022/05/06 11:28:30;;;;;;;3.73;3.33;;;18.20;99.90;;;;;;5089348;28;20480;-80
2022/05/06 11:31:00;;;;;;;3.37;3.13;;;18.30;99.90;;;;;;5059053;28;20560;-78
2022/05/06 11:33:32;;;;;;;4.30;3.40;;;18.40;99.90;;;;;;5056252;28;20479;-80
2022/05/06 11:36:06;;;;;;;4.07;2.93;;;18.40;99.90;;;;;;5056997;28;20455;-79
2022/05/06 11:38:46;;;;;;;2.90;2.57;;;18.40;99.90;;;;;;5051508;28;20493;-79
2022/05/06 11:41:17;;;;;;;3.60;3.27;;;18.40;99.90;;;;;;5054177;28;20515;-79
2022/05/06 11:43:46;;;;;;;4.33;3.20;;;18.50;99.90;;;;;;5051882;28;20550;-79
2022/05/06 11:49:07;;;;;;;3.60;2.87;;;18.40;99.90;;;;;;5050081;28;20459;-80
2022/05/06 11:51:38;;;;;;;3.83;2.97;;;18.30;99.90;;;;;;5056672;28;20467;-80
2022/05/06 11:54:08;;;;;;;4.70;3.50;;;18.30;99.90;;;;;;5056893;28;20480;-79
2022/05/06 11:56:39;;;;;;;4.90;3.30;;;18.40;99.90;;;;;;5044733;28;20455;-79
2022/05/06 11:59:08;;;;;;;4.40;2.77;;;18.40;99.90;;;;;;5044937;28;20878;-80
2022/05/06 12:01:38;;;;;;;3.97;3.13;;;18.50;99.90;;;;;;5049738;28;20458;-80
2022/05/06 12:04:10;;;;;;;2.80;2.33;;;18.50;99.90;;;;;;5054162;28;20846;-80
2022/05/06 12:06:41;;;;;;;4.20;3.47;;;18.60;99.90;;;;;;5045927;28;20763;-79
2022/05/06 12:09:11;;;;;;;2.90;2.57;;;18.60;99.90;;;;;;5045079;28;20479;-80
2022/05/06 12:11:40;;;;;;;3.80;2.77;;;18.60;99.90;;;;;;5043444;28;21036;-80
2022/05/06 12:14:10;;;;;;;2.70;2.17;;;18.70;99.90;;;;;;5053645;28;20454;-80
2022/05/06 12:16:54;;;;;;;2.93;2.73;;;18.70;99.90;;;;;;5049508;28;20462;-80
2022/05/06 12:19:35;;;;;;;3.33;2.73;;;18.60;99.90;;;;;;5051972;28;20489;-79
2022/05/06 12:22:05;;;;;;;4.90;3.60;;;18.60;99.90;;;;;;5060299;28;20565;-80
2022/05/06 12:24:42;;;;;;;3.30;3.00;;;18.60;99.90;;;;;;5055272;28;20451;-80
2022/05/06 12:27:10;;;;;;;3.40;3.00;;;18.70;99.90;;;;;;5061346;28;20904;-79
2022/05/06 12:29:41;;;;;;;3.27;2.87;;;18.70;99.90;;;;;;5059378;28;20458;-79
2022/05/06 12:32:09;;;;;;;5.03;3.33;;;18.70;99.90;;;;;;5061180;28;20478;-79
2022/05/06 12:34:39;;;;;;;4.27;2.53;;;18.70;99.90;;;;;;5059369;28;21138;-80
2022/05/06 12:37:14;;;;;;;2.83;2.63;;;18.70;99.90;;;;;;5057686;28;20451;-79
2022/05/06 12:39:44;;;;;;;2.77;2.57;;;18.70;99.90;;;;;;5060116;28;20524;-79
2022/05/06 12:42:13;;;;;;;4.47;2.70;;;18.70;99.90;;;;;;5053338;28;21023;-81
2022/05/06 12:44:42;;;;;;;2.20;2.07;;;18.80;99.90;;;;;;5055746;28;20457;-79
2022/05/06 12:49:39;;;;;;;3.73;3.07;;;18.80;99.90;;;;;;5053568;28;20470;-79
2022/05/06 12:50:06;;;;;;;2.53;2.33;;;18.90;99.90;;;;;;5049622;28;20545;-80
2022/05/06 12:52:35;;;;;;;3.43;2.30;;;18.90;99.90;;;;;;5054996;28;20486;-78
2022/05/06 12:55:04;;;;;;;3.27;2.80;;;18.90;99.90;;;;;;5056149;28;20461;-81
2022/05/06 12:57:33;;;;;;;3.50;3.20;;;18.90;99.90;;;;;;5047952;28;20462;-79
2022/05/06 13:00:02;;;;;;;2.80;2.60;;;19.00;99.90;;;;;;5051064;28;21934;-79
2022/05/06 13:02:30;;;;;;;2.60;2.40;;;19.00;99.90;;;;;;5053040;28;20463;-79
2022/05/06 13:04:59;;;;;;;3.50;3.13;;;19.00;99.90;;;;;;5055348;28;20449;-79
2022/05/06 13:07:28;;;;;;;2.77;2.57;;;19.00;99.90;;;;;;5056505;28;20550;-79
2022/05/06 13:09:57;;;;;;;4.47;3.43;;;19.00;99.90;;;;;;5049114;28;20447;-80
2022/05/06 13:12:26;;;;;;;2.70;2.50;;;19.00;99.90;;;;;;5058767;28;20889;-78
2022/05/06 13:14:54;;;;;;;4.20;3.03;;;19.00;99.90;;;;;;5056286;28;20447;-78
2022/05/06 13:17:22;;;;;;;4.83;2.40;;;19.00;99.90;;;;;;5048371;28;20458;-80
2022/05/06 13:19:51;;;;;;;3.30;2.33;;;18.90;99.90;;;;;;5054955;28;21655;-80
2022/05/06 13:22:21;;;;;;;3.83;2.83;;;19.00;99.90;;;;;;5051752;28;20478;-79
2022/05/06 13:24:52;;;;;;;3.47;2.73;;;19.00;99.90;;;;;;5049729;28;20447;-80
2022/05/06 13:27:20;;;;;;;2.43;2.20;;;19.20;99.90;;;;;;5052036;28;20877;-79
2022/05/06 13:29:48;;;;;;;2.50;2.30;;;18.90;99.90;;;;;;5051213;28;20951;-79
2022/05/06 13:32:16;;;;;;;3.40;3.10;;;18.90;99.90;;;;;;5051116;28;20518;-79
2022/05/06 13:34:44;;;;;;;4.50;2.90;;;19.00;99.90;;;;;;5049046;28;20450;-80
2022/05/06 13:37:13;;;;;;;2.80;2.60;;;19.00;99.90;;;;;;5058450;28;20477;-79
2022/05/06 13:39:41;;;;;;;3.13;2.60;;;19.00;99.90;;;;;;5047139;28;21022;-80